sensor_id;sensor_type;location;lat;lon;timestamp;temperature;humidity
18177;DHT22;9213;50.858;3.964;2023-02-01T00:02:10;11.20;62.60
18177;DHT22;9213;50.858;3.964;2023-02-01T00:04:36;11.20;62.50
18177;DHT22;9213;50.858;3.964;2023-02-01T00:07:03;11.20;62.40
18177;DHT22;9213;50.858;3.964;2023-02-01T00:09:32;11.20;62.30
18177;DHT22;9213;50.858;3.964;2023-02-01T00:11:58;11.20;62.10
18177;DHT22;9213;50.858;3.964;2023-02-01T00:14:27;11.20;61.90
18177;DHT22;9213;50.858;3.964;2023-02-01T00:16:54;11.20;61.70
18177;DHT22;9213;50.858;3.964;2023-02-01T00:19:21;11.20;61.40
18177;DHT22;9213;50.858;3.964;2023-02-01T00:21:48;11.20;61.10
18177;DHT22;9213;50.858;3.964;2023-02-01T00:24:15;11.20;60.80
18177;DHT22;9213;50.858;3.964;2023-02-01T00:26:44;11.20;60.50
18177;DHT22;9213;50.858;3.964;2023-02-01T00:29:13;11.20;60.30
18177;DHT22;9213;50.858;3.964;2023-02-01T00:31:41;11.20;60.10
18177;DHT22;9213;50.858;3.964;2023-02-01T00:34:09;11.20;60.00
18177;DHT22;9213;50.858;3.964;2023-02-01T00:36:38;11.20;59.90
18177;DHT22;9213;50.858;3.964;2023-02-01T00:39:05;11.10;59.80
18177;DHT22;9213;50.858;3.964;2023-02-01T00:41:32;11.10;59.90
18177;DHT22;9213;50.858;3.964;2023-02-01T00:44:00;11.10;60.00
18177;DHT22;9213;50.858;3.964;2023-02-01T00:46:28;11.10;60.10
18177;DHT22;9213;50.858;3.964;2023-02-01T00:48:55;11.10;60.10
18177;DHT22;9213;50.858;3.964;2023-02-01T00:51:23;11.00;60.00
18177;DHT22;9213;50.858;3.964;2023-02-01T00:53:50;11.00;60.10
18177;DHT22;9213;50.858;3.964;2023-02-01T00:56:18;11.00;60.10
18177;DHT22;9213;50.858;3.964;2023-02-01T00:58:45;11.00;60.00
18177;DHT22;9213;50.858;3.964;2023-02-01T01:01:15;10.90;59.90
18177;DHT22;9213;50.858;3.964;2023-02-01T01:03:43;10.90;59.90
18177;DHT22;9213;50.858;3.964;2023-02-01T01:06:12;10.90;59.60
18177;DHT22;9213;50.858;3.964;2023-02-01T01:08:40;10.90;59.50
18177;DHT22;9213;50.858;3.964;2023-02-01T01:11:09;10.90;59.30
18177;DHT22;9213;50.858;3.964;2023-02-01T01:13:37;10.80;59.10
18177;DHT22;9213;50.858;3.964;2023-02-01T01:16:05;10.80;59.00
18177;DHT22;9213;50.858;3.964;2023-02-01T01:18:34;10.70;58.90
18177;DHT22;9213;50.858;3.964;2023-02-01T01:21:04;10.70;58.80
18177;DHT22;9213;50.858;3.964;2023-02-01T01:23:31;10.70;58.70
18177;DHT22;9213;50.858;3.964;2023-02-01T01:25:58;10.60;58.60
18177;DHT22;9213;50.858;3.964;2023-02-01T01:28:25;10.60;58.50
18177;DHT22;9213;50.858;3.964;2023-02-01T01:30:51;10.50;58.60
18177;DHT22;9213;50.858;3.964;2023-02-01T01:33:18;10.50;58.70
18177;DHT22;9213;50.858;3.964;2023-02-01T01:35:47;10.50;58.60
18177;DHT22;9213;50.858;3.964;2023-02-01T01:38:13;10.50;58.40
18177;DHT22;9213;50.858;3.964;2023-02-01T01:40:44;10.50;58.50
18177;DHT22;9213;50.858;3.964;2023-02-01T01:43:13;10.50;58.50
18177;DHT22;9213;50.858;3.964;2023-02-01T01:45:40;10.50;58.40
18177;DHT22;9213;50.858;3.964;2023-02-01T01:48:13;10.60;58.30
18177;DHT22;9213;50.858;3.964;2023-02-01T01:50:44;10.60;58.20
18177;DHT22;9213;50.858;3.964;2023-02-01T01:53:18;10.50;58.20
18177;DHT22;9213;50.858;3.964;2023-02-01T01:55:47;10.50;58.20
18177;DHT22;9213;50.858;3.964;2023-02-01T01:58:18;10.50;58.20
18177;DHT22;9213;50.858;3.964;2023-02-01T02:00:46;10.50;58.30
18177;DHT22;9213;50.858;3.964;2023-02-01T02:03:17;10.50;58.20
18177;DHT22;9213;50.858;3.964;2023-02-01T02:05:45;10.50;58.30
18177;DHT22;9213;50.858;3.964;2023-02-01T02:08:12;10.50;58.30
18177;DHT22;9213;50.858;3.964;2023-02-01T02:10:41;10.50;58.20
18177;DHT22;9213;50.858;3.964;2023-02-01T02:13:26;10.50;58.20
18177;DHT22;9213;50.858;3.964;2023-02-01T02:16:04;10.60;58.20
18177;DHT22;9213;50.858;3.964;2023-02-01T02:18:37;10.60;58.30
18177;DHT22;9213;50.858;3.964;2023-02-01T02:21:14;10.60;58.10
18177;DHT22;9213;50.858;3.964;2023-02-01T02:24:09;10.60;58.00
18177;DHT22;9213;50.858;3.964;2023-02-01T02:27:02;10.70;58.20
18177;DHT22;9213;50.858;3.964;2023-02-01T02:32:53;10.70;57.80
18177;DHT22;9213;50.858;3.964;2023-02-01T02:35:32;10.70;57.70
18177;DHT22;9213;50.858;3.964;2023-02-01T02:38:12;10.70;57.50
18177;DHT22;9213;50.858;3.964;2023-02-01T02:40:46;10.60;57.20
18177;DHT22;9213;50.858;3.964;2023-02-01T02:43:20;10.60;57.10
18177;DHT22;9213;50.858;3.964;2023-02-01T02:46:07;10.60;57.70
18177;DHT22;9213;50.858;3.964;2023-02-01T02:49:01;10.50;56.90
18177;DHT22;9213;50.858;3.964;2023-02-01T02:51:33;10.40;56.90
18177;DHT22;9213;50.858;3.964;2023-02-01T02:54:22;10.40;57.10
18177;DHT22;9213;50.858;3.964;2023-02-01T02:57:10;10.30;57.10
18177;DHT22;9213;50.858;3.964;2023-02-01T02:59:57;10.30;57.10
18177;DHT22;9213;50.858;3.964;2023-02-01T03:02:44;10.20;57.10
18177;DHT22;9213;50.858;3.964;2023-02-01T03:05:33;10.20;57.10
18177;DHT22;9213;50.858;3.964;2023-02-01T03:08:10;10.20;57.20
18177;DHT22;9213;50.858;3.964;2023-02-01T03:10:45;10.20;57.30
18177;DHT22;9213;50.858;3.964;2023-02-01T03:13:17;10.10;57.10
18177;DHT22;9213;50.858;3.964;2023-02-01T03:15:50;10.10;57.10
18177;DHT22;9213;50.858;3.964;2023-02-01T03:18:22;10.10;57.10
18177;DHT22;9213;50.858;3.964;2023-02-01T03:20:53;10.10;56.90
18177;DHT22;9213;50.858;3.964;2023-02-01T03:23:26;10.10;56.90
18177;DHT22;9213;50.858;3.964;2023-02-01T03:25:55;10.10;56.90
18177;DHT22;9213;50.858;3.964;2023-02-01T03:28:25;10.00;56.70
18177;DHT22;9213;50.858;3.964;2023-02-01T03:30:54;10.00;57.40
18177;DHT22;9213;50.858;3.964;2023-02-01T03:33:23;10.00;56.70
18177;DHT22;9213;50.858;3.964;2023-02-01T03:35:57;10.00;56.70
18177;DHT22;9213;50.858;3.964;2023-02-01T03:38:30;10.00;56.70
18177;DHT22;9213;50.858;3.964;2023-02-01T03:41:03;10.00;56.70
18177;DHT22;9213;50.858;3.964;2023-02-01T03:43:42;9.90;56.70
18177;DHT22;9213;50.858;3.964;2023-02-01T03:46:16;10.00;56.60
18177;DHT22;9213;50.858;3.964;2023-02-01T03:48:44;9.90;56.70
18177;DHT22;9213;50.858;3.964;2023-02-01T03:51:12;9.90;56.60
18177;DHT22;9213;50.858;3.964;2023-02-01T03:53:42;9.90;56.60
18177;DHT22;9213;50.858;3.964;2023-02-01T03:56:11;9.80;56.50
18177;DHT22;9213;50.858;3.964;2023-02-01T03:58:38;9.90;56.60
18177;DHT22;9213;50.858;3.964;2023-02-01T04:01:05;9.80;56.40
18177;DHT22;9213;50.858;3.964;2023-02-01T04:03:32;9.80;56.50
18177;DHT22;9213;50.858;3.964;2023-02-01T04:05:59;9.70;56.50
18177;DHT22;9213;50.858;3.964;2023-02-01T04:08:26;9.70;56.50
18177;DHT22;9213;50.858;3.964;2023-02-01T04:10:54;9.70;56.60
18177;DHT22;9213;50.858;3.964;2023-02-01T04:13:21;9.70;56.60
18177;DHT22;9213;50.858;3.964;2023-02-01T04:15:48;9.60;56.50
18177;DHT22;9213;50.858;3.964;2023-02-01T04:18:16;9.60;56.60
18177;DHT22;9213;50.858;3.964;2023-02-01T04:20:43;9.60;56.70
18177;DHT22;9213;50.858;3.964;2023-02-01T04:23:11;9.50;56.70
18177;DHT22;9213;50.858;3.964;2023-02-01T04:25:38;9.60;56.70
18177;DHT22;9213;50.858;3.964;2023-02-01T04:28:06;9.50;56.80
18177;DHT22;9213;50.858;3.964;2023-02-01T04:30:33;9.50;56.80
18177;DHT22;9213;50.858;3.964;2023-02-01T04:33:00;9.50;56.80
18177;DHT22;9213;50.858;3.964;2023-02-01T04:35:29;9.40;57.40
18177;DHT22;9213;50.858;3.964;2023-02-01T04:37:56;9.40;56.70
18177;DHT22;9213;50.858;3.964;2023-02-01T04:40:23;9.40;56.80
18177;DHT22;9213;50.858;3.964;2023-02-01T04:42:49;9.30;56.90
18177;DHT22;9213;50.858;3.964;2023-02-01T04:45:18;9.30;57.00
18177;DHT22;9213;50.858;3.964;2023-02-01T04:47:45;9.30;57.00
18177;DHT22;9213;50.858;3.964;2023-02-01T04:50:13;9.20;56.90
18177;DHT22;9213;50.858;3.964;2023-02-01T04:52:40;9.20;56.90
18177;DHT22;9213;50.858;3.964;2023-02-01T04:55:08;9.20;56.90
18177;DHT22;9213;50.858;3.964;2023-02-01T04:57:35;9.10;57.10
18177;DHT22;9213;50.858;3.964;2023-02-01T05:00:05;9.10;57.20
18177;DHT22;9213;50.858;3.964;2023-02-01T05:02:34;9.10;58.10
18177;DHT22;9213;50.858;3.964;2023-02-01T05:05:01;9.10;57.30
18177;DHT22;9213;50.858;3.964;2023-02-01T05:07:28;9.00;57.30
18177;DHT22;9213;50.858;3.964;2023-02-01T05:09:55;9.00;57.30
18177;DHT22;9213;50.858;3.964;2023-02-01T05:12:22;9.00;57.30
18177;DHT22;9213;50.858;3.964;2023-02-01T05:15:12;9.00;57.30
18177;DHT22;9213;50.858;3.964;2023-02-01T05:17:40;9.00;57.60
18177;DHT22;9213;50.858;3.964;2023-02-01T05:20:08;9.00;57.40
18177;DHT22;9213;50.858;3.964;2023-02-01T05:22:35;9.00;57.50
18177;DHT22;9213;50.858;3.964;2023-02-01T05:25:03;8.90;57.40
18177;DHT22;9213;50.858;3.964;2023-02-01T05:27:30;8.90;57.50
18177;DHT22;9213;50.858;3.964;2023-02-01T05:29:56;8.90;57.50
18177;DHT22;9213;50.858;3.964;2023-02-01T05:32:23;8.90;57.50
18177;DHT22;9213;50.858;3.964;2023-02-01T05:34:52;8.90;57.50
18177;DHT22;9213;50.858;3.964;2023-02-01T05:37:19;8.90;57.60
18177;DHT22;9213;50.858;3.964;2023-02-01T05:39:45;8.80;57.50
18177;DHT22;9213;50.858;3.964;2023-02-01T05:42:12;8.90;57.60
18177;DHT22;9213;50.858;3.964;2023-02-01T05:44:39;8.90;57.60
18177;DHT22;9213;50.858;3.964;2023-02-01T05:47:06;8.90;57.60
18177;DHT22;9213;50.858;3.964;2023-02-01T05:49:33;8.80;57.60
18177;DHT22;9213;50.858;3.964;2023-02-01T05:52:02;8.80;57.60
18177;DHT22;9213;50.858;3.964;2023-02-01T05:54:29;8.80;57.60
18177;DHT22;9213;50.858;3.964;2023-02-01T05:56:56;8.80;57.60
18177;DHT22;9213;50.858;3.964;2023-02-01T05:59:23;8.80;57.70
18177;DHT22;9213;50.858;3.964;2023-02-01T06:01:50;8.80;57.80
18177;DHT22;9213;50.858;3.964;2023-02-01T06:04:16;8.70;57.80
18177;DHT22;9213;50.858;3.964;2023-02-01T06:06:43;8.70;57.90
18177;DHT22;9213;50.858;3.964;2023-02-01T06:09:12;8.70;57.90
18177;DHT22;9213;50.858;3.964;2023-02-01T06:11:39;8.70;58.00
18177;DHT22;9213;50.858;3.964;2023-02-01T06:14:06;8.70;58.00
18177;DHT22;9213;50.858;3.964;2023-02-01T06:16:34;8.60;58.10
18177;DHT22;9213;50.858;3.964;2023-02-01T06:19:00;8.60;58.10
18177;DHT22;9213;50.858;3.964;2023-02-01T06:21:27;8.60;58.10
18177;DHT22;9213;50.858;3.964;2023-02-01T06:23:54;8.60;58.10
18177;DHT22;9213;50.858;3.964;2023-02-01T06:26:24;8.60;58.10
18177;DHT22;9213;50.858;3.964;2023-02-01T06:28:54;8.50;58.10
18177;DHT22;9213;50.858;3.964;2023-02-01T06:31:21;8.50;58.20
18177;DHT22;9213;50.858;3.964;2023-02-01T06:33:48;8.50;58.20
18177;DHT22;9213;50.858;3.964;2023-02-01T06:36:15;8.50;58.30
18177;DHT22;9213;50.858;3.964;2023-02-01T06:38:44;8.60;58.40
18177;DHT22;9213;50.858;3.964;2023-02-01T06:41:11;8.50;58.40
18177;DHT22;9213;50.858;3.964;2023-02-01T06:43:39;8.60;58.50
18177;DHT22;9213;50.858;3.964;2023-02-01T06:46:08;8.60;58.50
18177;DHT22;9213;50.858;3.964;2023-02-01T06:48:36;8.50;58.50
18177;DHT22;9213;50.858;3.964;2023-02-01T06:51:03;8.50;58.50
18177;DHT22;9213;50.858;3.964;2023-02-01T06:53:31;8.50;58.60
18177;DHT22;9213;50.858;3.964;2023-02-01T06:55:59;8.50;58.50
18177;DHT22;9213;50.858;3.964;2023-02-01T06:58:28;8.50;58.50
18177;DHT22;9213;50.858;3.964;2023-02-01T07:00:57;8.50;58.60
18177;DHT22;9213;50.858;3.964;2023-02-01T07:03:24;8.50;58.60
18177;DHT22;9213;50.858;3.964;2023-02-01T07:05:55;8.50;58.60
18177;DHT22;9213;50.858;3.964;2023-02-01T07:08:24;8.60;58.70
18177;DHT22;9213;50.858;3.964;2023-02-01T07:10:50;8.50;58.60
18177;DHT22;9213;50.858;3.964;2023-02-01T07:13:17;8.50;58.60
18177;DHT22;9213;50.858;3.964;2023-02-01T07:15:44;8.50;58.70
18177;DHT22;9213;50.858;3.964;2023-02-01T07:18:13;8.50;58.70
18177;DHT22;9213;50.858;3.964;2023-02-01T07:20:40;8.60;58.70
18177;DHT22;9213;50.858;3.964;2023-02-01T07:23:09;8.50;58.80
18177;DHT22;9213;50.858;3.964;2023-02-01T07:25:36;8.60;58.80
18177;DHT22;9213;50.858;3.964;2023-02-01T07:28:03;8.50;58.60
18177;DHT22;9213;50.858;3.964;2023-02-01T07:30:30;8.50;58.60
18177;DHT22;9213;50.858;3.964;2023-02-01T07:32:57;8.60;58.70
18177;DHT22;9213;50.858;3.964;2023-02-01T07:35:28;8.60;58.70
18177;DHT22;9213;50.858;3.964;2023-02-01T07:37:56;8.60;58.70
18177;DHT22;9213;50.858;3.964;2023-02-01T07:40:24;8.60;58.60
18177;DHT22;9213;50.858;3.964;2023-02-01T07:42:54;8.60;58.70
18177;DHT22;9213;50.858;3.964;2023-02-01T07:45:21;8.60;58.60
18177;DHT22;9213;50.858;3.964;2023-02-01T07:47:48;8.70;58.70
18177;DHT22;9213;50.858;3.964;2023-02-01T07:50:15;8.70;58.70
18177;DHT22;9213;50.858;3.964;2023-02-01T07:52:44;8.80;58.70
18177;DHT22;9213;50.858;3.964;2023-02-01T07:55:11;8.80;58.60
18177;DHT22;9213;50.858;3.964;2023-02-01T07:57:38;8.80;58.50
18177;DHT22;9213;50.858;3.964;2023-02-01T08:00:06;8.90;58.50
18177;DHT22;9213;50.858;3.964;2023-02-01T08:02:50;9.00;58.50
18177;DHT22;9213;50.858;3.964;2023-02-01T08:05:17;9.10;58.30
18177;DHT22;9213;50.858;3.964;2023-02-01T08:07:48;9.20;58.30
18177;DHT22;9213;50.858;3.964;2023-02-01T08:10:16;9.30;58.20
18177;DHT22;9213;50.858;3.964;2023-02-01T08:12:43;9.40;57.90
18177;DHT22;9213;50.858;3.964;2023-02-01T08:15:13;9.50;57.70
18177;DHT22;9213;50.858;3.964;2023-02-01T08:17:46;9.60;57.50
18177;DHT22;9213;50.858;3.964;2023-02-01T08:20:13;9.60;57.30
18177;DHT22;9213;50.858;3.964;2023-02-01T08:22:40;9.70;57.30
18177;DHT22;9213;50.858;3.964;2023-02-01T08:25:09;9.80;56.80
18177;DHT22;9213;50.858;3.964;2023-02-01T08:27:37;9.80;56.70
18177;DHT22;9213;50.858;3.964;2023-02-01T08:30:05;9.80;56.60
18177;DHT22;9213;50.858;3.964;2023-02-01T08:32:34;9.90;56.70
18177;DHT22;9213;50.858;3.964;2023-02-01T08:35:01;9.90;56.60
18177;DHT22;9213;50.858;3.964;2023-02-01T08:37:28;10.00;56.60
18177;DHT22;9213;50.858;3.964;2023-02-01T08:39:55;10.00;56.30
18177;DHT22;9213;50.858;3.964;2023-02-01T08:42:23;10.10;56.80
18177;DHT22;9213;50.858;3.964;2023-02-01T08:45:08;10.10;55.80
18177;DHT22;9213;50.858;3.964;2023-02-01T08:47:35;10.10;55.70
18177;DHT22;9213;50.858;3.964;2023-02-01T08:50:03;10.10;55.80
18177;DHT22;9213;50.858;3.964;2023-02-01T08:52:30;10.20;55.80
18177;DHT22;9213;50.858;3.964;2023-02-01T08:54:57;10.30;55.70
18177;DHT22;9213;50.858;3.964;2023-02-01T08:57:25;10.30;55.30
18177;DHT22;9213;50.858;3.964;2023-02-01T08:59:52;10.40;55.30
18177;DHT22;9213;50.858;3.964;2023-02-01T09:02:19;10.40;55.20
18177;DHT22;9213;50.858;3.964;2023-02-01T09:04:46;10.50;55.20
18177;DHT22;9213;50.858;3.964;2023-02-01T09:07:13;10.50;55.10
18177;DHT22;9213;50.858;3.964;2023-02-01T09:09:40;10.50;55.00
18177;DHT22;9213;50.858;3.964;2023-02-01T09:12:08;10.60;54.80
18177;DHT22;9213;50.858;3.964;2023-02-01T09:14:36;10.60;54.90
18177;DHT22;9213;50.858;3.964;2023-02-01T09:17:03;10.60;55.10
18177;DHT22;9213;50.858;3.964;2023-02-01T09:19:31;10.60;55.10
18177;DHT22;9213;50.858;3.964;2023-02-01T09:21:58;10.70;55.10
18177;DHT22;9213;50.858;3.964;2023-02-01T09:24:25;10.80;55.00
18177;DHT22;9213;50.858;3.964;2023-02-01T09:26:52;11.00;55.00
18177;DHT22;9213;50.858;3.964;2023-02-01T09:29:19;11.20;54.50
18177;DHT22;9213;50.858;3.964;2023-02-01T09:31:47;11.50;54.00
18177;DHT22;9213;50.858;3.964;2023-02-01T09:34:15;11.80;53.50
18177;DHT22;9213;50.858;3.964;2023-02-01T09:36:42;12.00;52.70
18177;DHT22;9213;50.858;3.964;2023-02-01T09:39:09;12.20;52.00
18177;DHT22;9213;50.858;3.964;2023-02-01T09:41:45;12.40;51.40
18177;DHT22;9213;50.858;3.964;2023-02-01T09:44:39;12.60;51.10
18177;DHT22;9213;50.858;3.964;2023-02-01T09:47:12;12.80;50.90
18177;DHT22;9213;50.858;3.964;2023-02-01T09:49:46;12.90;50.70
18177;DHT22;9213;50.858;3.964;2023-02-01T09:52:17;13.00;49.80
18177;DHT22;9213;50.858;3.964;2023-02-01T09:54:49;13.10;49.60
18177;DHT22;9213;50.858;3.964;2023-02-01T09:57:25;13.20;49.10
18177;DHT22;9213;50.858;3.964;2023-02-01T09:59:56;13.30;48.90
18177;DHT22;9213;50.858;3.964;2023-02-01T10:02:28;13.40;48.80
18177;DHT22;9213;50.858;3.964;2023-02-01T10:04:58;13.50;48.30
18177;DHT22;9213;50.858;3.964;2023-02-01T10:07:32;13.60;47.20
18177;DHT22;9213;50.858;3.964;2023-02-01T10:10:07;13.70;47.00
18177;DHT22;9213;50.858;3.964;2023-02-01T10:13:01;13.60;47.30
18177;DHT22;9213;50.858;3.964;2023-02-01T10:15:43;13.80;47.80
18177;DHT22;9213;50.858;3.964;2023-02-01T10:18:34;13.80;47.40
18177;DHT22;9213;50.858;3.964;2023-02-01T10:21:11;13.90;47.20
18177;DHT22;9213;50.858;3.964;2023-02-01T10:24:13;13.90;46.80
18177;DHT22;9213;50.858;3.964;2023-02-01T10:26:47;14.00;47.30
18177;DHT22;9213;50.858;3.964;2023-02-01T10:29:19;14.00;46.30
18177;DHT22;9213;50.858;3.964;2023-02-01T10:31:46;14.10;47.40
18177;DHT22;9213;50.858;3.964;2023-02-01T10:34:20;14.20;47.10
18177;DHT22;9213;50.858;3.964;2023-02-01T10:36:54;14.40;46.60
18177;DHT22;9213;50.858;3.964;2023-02-01T10:39:22;14.50;46.30
18177;DHT22;9213;50.858;3.964;2023-02-01T10:41:49;14.50;45.70
18177;DHT22;9213;50.858;3.964;2023-02-01T10:44:19;14.60;45.70
18177;DHT22;9213;50.858;3.964;2023-02-01T10:46:48;14.60;45.60
18177;DHT22;9213;50.858;3.964;2023-02-01T10:49:19;14.60;45.40
18177;DHT22;9213;50.858;3.964;2023-02-01T10:51:51;14.60;45.00
18177;DHT22;9213;50.858;3.964;2023-02-01T10:54:21;14.60;45.20
18177;DHT22;9213;50.858;3.964;2023-02-01T10:56:49;14.70;45.10
18177;DHT22;9213;50.858;3.964;2023-02-01T10:59:19;14.80;44.80
18177;DHT22;9213;50.858;3.964;2023-02-01T11:01:48;15.00;44.60
18177;DHT22;9213;50.858;3.964;2023-02-01T11:04:18;15.00;44.10
18177;DHT22;9213;50.858;3.964;2023-02-01T11:06:47;15.10;44.20
18177;DHT22;9213;50.858;3.964;2023-02-01T11:09:19;15.20;44.10
18177;DHT22;9213;50.858;3.964;2023-02-01T11:11:56;15.20;43.70
18177;DHT22;9213;50.858;3.964;2023-02-01T11:14:34;15.40;43.70
18177;DHT22;9213;50.858;3.964;2023-02-01T11:17:23;15.50;43.60
18177;DHT22;9213;50.858;3.964;2023-02-01T11:20:00;15.70;43.90
18177;DHT22;9213;50.858;3.964;2023-02-01T11:22:28;15.90;42.30
18177;DHT22;9213;50.858;3.964;2023-02-01T11:24:56;16.00;41.90
18177;DHT22;9213;50.858;3.964;2023-02-01T11:27:24;16.00;41.10
18177;DHT22;9213;50.858;3.964;2023-02-01T11:29:55;16.00;40.80
18177;DHT22;9213;50.858;3.964;2023-02-01T11:32:23;15.90;41.10
18177;DHT22;9213;50.858;3.964;2023-02-01T11:34:55;15.80;40.40
18177;DHT22;9213;50.858;3.964;2023-02-01T11:37:26;15.80;40.70
18177;DHT22;9213;50.858;3.964;2023-02-01T11:39:55;15.70;40.80
18177;DHT22;9213;50.858;3.964;2023-02-01T11:42:22;15.60;40.60
18177;DHT22;9213;50.858;3.964;2023-02-01T11:44:50;15.60;40.60
18177;DHT22;9213;50.858;3.964;2023-02-01T11:47:24;15.60;40.70
18177;DHT22;9213;50.858;3.964;2023-02-01T11:49:53;15.60;41.00
18177;DHT22;9213;50.858;3.964;2023-02-01T11:52:40;15.70;40.80
18177;DHT22;9213;50.858;3.964;2023-02-01T11:55:37;15.80;40.90
18177;DHT22;9213;50.858;3.964;2023-02-01T11:58:31;15.90;40.60
18177;DHT22;9213;50.858;3.964;2023-02-01T12:01:20;16.00;40.20
18177;DHT22;9213;50.858;3.964;2023-02-01T12:04:06;16.00;39.90
18177;DHT22;9213;50.858;3.964;2023-02-01T12:06:47;16.10;39.60
18177;DHT22;9213;50.858;3.964;2023-02-01T12:09:38;16.20;39.50
18177;DHT22;9213;50.858;3.964;2023-02-01T12:12:16;16.30;39.10
18177;DHT22;9213;50.858;3.964;2023-02-01T12:14:59;16.40;39.00
18177;DHT22;9213;50.858;3.964;2023-02-01T12:17:57;16.50;39.00
18177;DHT22;9213;50.858;3.964;2023-02-01T12:20:40;16.50;38.80
18177;DHT22;9213;50.858;3.964;2023-02-01T12:23:21;16.40;38.60
18177;DHT22;9213;50.858;3.964;2023-02-01T12:26:03;16.40;38.50
18177;DHT22;9213;50.858;3.964;2023-02-01T12:28:41;16.30;38.40
18177;DHT22;9213;50.858;3.964;2023-02-01T12:34:25;16.60;38.40
18177;DHT22;9213;50.858;3.964;2023-02-01T12:36:58;16.70;38.00
18177;DHT22;9213;50.858;3.964;2023-02-01T12:39:31;16.80;37.90
18177;DHT22;9213;50.858;3.964;2023-02-01T12:42:03;16.90;37.50
18177;DHT22;9213;50.858;3.964;2023-02-01T12:44:39;17.00;37.10
18177;DHT22;9213;50.858;3.964;2023-02-01T12:47:14;17.10;37.00
18177;DHT22;9213;50.858;3.964;2023-02-01T12:49:51;17.20;36.60
18177;DHT22;9213;50.858;3.964;2023-02-01T12:52:26;17.20;36.50
18177;DHT22;9213;50.858;3.964;2023-02-01T12:54:57;17.30;36.50
18177;DHT22;9213;50.858;3.964;2023-02-01T12:57:30;17.20;36.50
18177;DHT22;9213;50.858;3.964;2023-02-01T13:00:03;17.20;36.10
18177;DHT22;9213;50.858;3.964;2023-02-01T13:02:37;17.10;36.10
18177;DHT22;9213;50.858;3.964;2023-02-01T13:05:14;17.00;36.10
18177;DHT22;9213;50.858;3.964;2023-02-01T13:07:45;16.90;36.50
18177;DHT22;9213;50.858;3.964;2023-02-01T13:10:17;16.90;36.30
18177;DHT22;9213;50.858;3.964;2023-02-01T13:12:50;16.80;36.20
18177;DHT22;9213;50.858;3.964;2023-02-01T13:15:23;16.80;36.40
18177;DHT22;9213;50.858;3.964;2023-02-01T13:17:52;16.70;36.60
18177;DHT22;9213;50.858;3.964;2023-02-01T13:20:25;16.70;36.80
18177;DHT22;9213;50.858;3.964;2023-02-01T13:22:59;16.70;36.80
18177;DHT22;9213;50.858;3.964;2023-02-01T13:25:32;16.70;36.40
18177;DHT22;9213;50.858;3.964;2023-02-01T13:28:06;16.70;36.70
18177;DHT22;9213;50.858;3.964;2023-02-01T13:30:48;16.70;36.70
18177;DHT22;9213;50.858;3.964;2023-02-01T13:33:37;16.70;36.70
18177;DHT22;9213;50.858;3.964;2023-02-01T13:36:26;16.80;36.60
18177;DHT22;9213;50.858;3.964;2023-02-01T13:39:19;16.80;37.10
18177;DHT22;9213;50.858;3.964;2023-02-01T13:41:54;16.90;37.20
18177;DHT22;9213;50.858;3.964;2023-02-01T13:44:28;16.90;36.80
18177;DHT22;9213;50.858;3.964;2023-02-01T13:46:58;16.90;36.50
18177;DHT22;9213;50.858;3.964;2023-02-01T13:49:28;16.90;36.20
18177;DHT22;9213;50.858;3.964;2023-02-01T13:51:57;16.90;36.40
18177;DHT22;9213;50.858;3.964;2023-02-01T13:54:28;16.80;36.50
18177;DHT22;9213;50.858;3.964;2023-02-01T13:56:55;16.90;36.60
18177;DHT22;9213;50.858;3.964;2023-02-01T13:59:49;16.90;36.50
18177;DHT22;9213;50.858;3.964;2023-02-01T14:02:36;17.00;37.00
18177;DHT22;9213;50.858;3.964;2023-02-01T14:05:04;17.10;37.10
18177;DHT22;9213;50.858;3.964;2023-02-01T14:07:34;17.00;36.90
18177;DHT22;9213;50.858;3.964;2023-02-01T14:13:11;17.30;36.90
18177;DHT22;9213;50.858;3.964;2023-02-01T14:15:40;17.30;36.70
18177;DHT22;9213;50.858;3.964;2023-02-01T14:18:59;17.40;36.60
18177;DHT22;9213;50.858;3.964;2023-02-01T14:21:29;17.60;36.80
18177;DHT22;9213;50.858;3.964;2023-02-01T14:24:02;17.70;36.50
18177;DHT22;9213;50.858;3.964;2023-02-01T14:26:44;17.70;36.20
18177;DHT22;9213;50.858;3.964;2023-02-01T14:29:24;17.80;36.30
18177;DHT22;9213;50.858;3.964;2023-02-01T14:32:15;17.80;36.10
18177;DHT22;9213;50.858;3.964;2023-02-01T14:34:51;17.80;36.00
18177;DHT22;9213;50.858;3.964;2023-02-01T14:37:28;17.60;35.90
18177;DHT22;9213;50.858;3.964;2023-02-01T14:39:57;17.60;35.50
18177;DHT22;9213;50.858;3.964;2023-02-01T14:42:28;17.40;35.90
18177;DHT22;9213;50.858;3.964;2023-02-01T14:48:41;17.30;36.50
18177;DHT22;9213;50.858;3.964;2023-02-01T14:51:09;17.20;36.50
18177;DHT22;9213;50.858;3.964;2023-02-01T14:53:38;17.00;36.60
18177;DHT22;9213;50.858;3.964;2023-02-01T14:56:11;16.90;36.90
18177;DHT22;9213;50.858;3.964;2023-02-01T14:58:41;16.80;37.10
18177;DHT22;9213;50.858;3.964;2023-02-01T15:01:18;16.70;37.40
18177;DHT22;9213;50.858;3.964;2023-02-01T15:03:58;16.70;37.60
18177;DHT22;9213;50.858;3.964;2023-02-01T15:06:33;16.60;37.60
18177;DHT22;9213;50.858;3.964;2023-02-01T15:09:07;16.50;37.70
18177;DHT22;9213;50.858;3.964;2023-02-01T15:11:53;16.50;37.90
18177;DHT22;9213;50.858;3.964;2023-02-01T15:14:20;16.50;38.20
18177;DHT22;9213;50.858;3.964;2023-02-01T15:16:47;16.30;38.30
18177;DHT22;9213;50.858;3.964;2023-02-01T15:19:21;16.30;38.30
18177;DHT22;9213;50.858;3.964;2023-02-01T15:21:49;16.20;38.40
18177;DHT22;9213;50.858;3.964;2023-02-01T15:24:22;16.20;38.40
18177;DHT22;9213;50.858;3.964;2023-02-01T15:26:49;16.20;38.70
18177;DHT22;9213;50.858;3.964;2023-02-01T15:29:17;16.10;38.80
18177;DHT22;9213;50.858;3.964;2023-02-01T15:31:46;16.10;38.90
18177;DHT22;9213;50.858;3.964;2023-02-01T15:34:13;16.00;39.00
18177;DHT22;9213;50.858;3.964;2023-02-01T15:36:42;16.00;39.10
18177;DHT22;9213;50.858;3.964;2023-02-01T15:39:15;16.00;39.10
18177;DHT22;9213;50.858;3.964;2023-02-01T15:41:47;15.90;39.30
18177;DHT22;9213;50.858;3.964;2023-02-01T15:44:20;15.90;39.30
18177;DHT22;9213;50.858;3.964;2023-02-01T15:46:49;15.90;39.40
18177;DHT22;9213;50.858;3.964;2023-02-01T15:49:20;15.80;39.50
18177;DHT22;9213;50.858;3.964;2023-02-01T15:51:51;15.70;39.60
18177;DHT22;9213;50.858;3.964;2023-02-01T15:54:22;15.70;39.80
18177;DHT22;9213;50.858;3.964;2023-02-01T15:56:52;15.60;39.80
18177;DHT22;9213;50.858;3.964;2023-02-01T15:59:22;15.60;39.90
18177;DHT22;9213;50.858;3.964;2023-02-01T16:01:50;15.50;40.00
18177;DHT22;9213;50.858;3.964;2023-02-01T16:04:19;15.40;40.10
18177;DHT22;9213;50.858;3.964;2023-02-01T16:06:51;15.40;40.30
18177;DHT22;9213;50.858;3.964;2023-02-01T16:09:20;15.40;40.40
18177;DHT22;9213;50.858;3.964;2023-02-01T16:11:52;15.30;40.50
18177;DHT22;9213;50.858;3.964;2023-02-01T16:14:20;15.20;40.60
18177;DHT22;9213;50.858;3.964;2023-02-01T16:16:47;15.10;41.00
18177;DHT22;9213;50.858;3.964;2023-02-01T16:19:14;15.10;41.20
18177;DHT22;9213;50.858;3.964;2023-02-01T16:21:41;15.10;41.40
18177;DHT22;9213;50.858;3.964;2023-02-01T16:24:09;15.00;41.50
18177;DHT22;9213;50.858;3.964;2023-02-01T16:26:36;15.00;41.50
18177;DHT22;9213;50.858;3.964;2023-02-01T16:29:04;15.00;41.60
18177;DHT22;9213;50.858;3.964;2023-02-01T16:31:33;14.90;41.70